Darwin, CA (93522)

5:48 PM PDT on August 04, 2015 (GMT -0700)
Studio Forge | | Change Station
CLOSE
Current Station
Personal Weather Station
Location: Ridgecrest, CA
Elevation: 2287 ft
Nearby Weather Stations

Elev 2287 ft 35.62 °N, 117.67 °W | Updated 11 seconds ago

Clear
Clear
99.5 °F
Feels Like 94 °F
N
12.0
Wind Variable Wind from SW
Gusts 20.0 mph

Today
High -- | Low -- °F
--% Chance of Precip.
Yesterday
High -- | Low -- °F
Precip. -- in
6:01 AM 7:52 PM
Waning Gibbous, 73% visible
Pressure 29.77 in
Visibility 10.0 miles
Clouds Scattered Clouds 30000 ft
Heat Index 94 °F
Dew Point 33 °F
Humidity 10%
Rainfall 0.00 in
Snow Depth Not available.
UV 3 out of 12
Pollen 5.60 out of 12
Air Quality Not available.
Flu Activity Not available.
METAR KNID 042356Z 22014G26KT 10SM SCT300 39/04 A2984 RMK AO2 PK WND 22026/2351 SLP079 T03890039 10406 20339 55010 $

More Conditions Fewer Conditions

Pressure 29.77 in
Visibility 10.0 miles
Clouds Scattered Clouds 30000 ft
Heat Index 94 °F
Dew Point 33 °F
Humidity 10%
Rainfall 0.00 in
Snow Depth Not available.
UV 3 out of 12
Pollen 5.60 out of 12
Air Quality Not available.
Flu Activity Not available.
METAR KNID 042356Z 22014G26KT 10SM SCT300 39/04 A2984 RMK AO2 PK WND 22026/2351 SLP079 T03890039 10406 20339 55010 $

More Conditions Fewer Conditions

10-Day Weather Forecast

×

Almanac

Astronomy

Aug. 04, 2015 Rise Set
Actual Time
Civil Twilight
Nautical Twilight
Astronomical Twilight
Moon
Length of Visible Light
Length of Day
Tomorrow will be .
, % of the Moon is Illuminated

Today's Extremes

State Highs State Lows

Community

WunderPhotos

Upload Photos

1,844,033 photos uploaded!

WunderBlogs® & News

Nearby

Air Quality

  Air Quality AQ Index Pollutant
Not available.

Snow Depth

Station Depth Elevation

Earthquake Activity

City Distance Mag. Time & Date
Minimum magnitude displayed is 2.5.

Coastal Water Temperatures

Place Temperature

Stations

Nearby Weather Stations

Station Location Temp. Windchill Dew Point Humidity Wind Precip. Elev Updated Type